Time;durP1;ratioP1;P1;durP2;ratioP2;P2;SDS_P1;SDS_P2;PMS_P1;PMS_P2;Temp;Humidity;BMP_temperature;BMP_pressure;BME280_temperature;BME280_humidity;BME280_pressure;Samples;Min_cycle;Max_cycle;Signal;HPM_P1;HPM_P2
2023/01/05 00:00:09;;;;;;;1.30;1.20;;;11.50;99.90;;;;;;5027036;28;20480;-71
2023/01/05 00:02:35;;;;;;;2.70;1.57;;;11.50;99.90;;;;;;5026938;28;20450;-71
2023/01/05 00:05:02;;;;;;;1.60;1.30;;;11.50;99.90;;;;;;5028562;28;20445;-71
2023/01/05 00:07:29;;;;;;;1.57;1.47;;;11.60;99.90;;;;;;5030871;28;21062;-71
2023/01/05 00:09:55;;;;;;;1.93;1.30;;;11.50;99.90;;;;;;5030132;28;21521;-71
2023/01/05 00:23:22;;;;;;;2.40;1.07;;;11.50;99.90;;;;;;5030674;28;20437;-71
2023/01/05 00:25:49;;;;;;;6.27;1.80;;;11.50;99.90;;;;;;5030482;28;20842;-71
2023/01/05 00:28:15;;;;;;;3.07;1.70;;;11.50;99.90;;;;;;5030805;28;20580;-71
2023/01/05 00:30:45;;;;;;;3.10;1.50;;;11.50;99.90;;;;;;5030863;28;20519;-71
2023/01/05 00:33:13;;;;;;;1.77;1.20;;;11.50;99.90;;;;;;5030266;28;20513;-71
2023/01/05 00:35:40;;;;;;;1.50;1.40;;;11.50;99.90;;;;;;5030104;28;20444;-71
2023/01/05 00:38:08;;;;;;;1.30;1.20;;;11.50;99.90;;;;;;5029840;28;20451;-71
2023/01/05 00:40:35;;;;;;;1.40;1.30;;;11.50;99.90;;;;;;5030326;28;20474;-71
2023/01/05 00:43:02;;;;;;;1.40;1.30;;;11.60;99.90;;;;;;5030255;28;20465;-72
2023/01/05 00:45:29;;;;;;;1.40;1.10;;;11.60;99.90;;;;;;5030183;28;20453;-71
2023/01/05 00:47:57;;;;;;;1.53;1.43;;;11.60;99.90;;;;;;5029565;28;21019;-71
2023/01/05 00:50:24;;;;;;;1.30;1.20;;;11.60;99.90;;;;;;5030425;28;20530;-71
2023/01/05 00:52:50;;;;;;;2.20;1.23;;;11.60;99.90;;;;;;5029756;28;20550;-71
2023/01/05 00:55:17;;;;;;;3.93;1.23;;;11.60;99.90;;;;;;5030030;28;20484;-72
2023/01/05 00:57:45;;;;;;;1.30;1.20;;;11.60;99.90;;;;;;5029982;28;20969;-71
2023/01/05 01:00:14;;;;;;;2.70;1.23;;;11.50;99.90;;;;;;5029809;28;20525;-71
2023/01/05 01:02:41;;;;;;;2.70;1.13;;;11.50;99.90;;;;;;5029700;28;20478;-71
2023/01/05 01:05:09;;;;;;;2.83;1.33;;;11.50;99.90;;;;;;5029511;28;20946;-71
2023/01/05 01:07:36;;;;;;;1.83;1.50;;;11.40;99.90;;;;;;5029941;28;20516;-71
2023/01/05 01:10:03;;;;;;;6.60;2.40;;;11.40;99.90;;;;;;5030049;28;20512;-71
2023/01/05 01:12:30;;;;;;;3.13;1.63;;;11.40;99.90;;;;;;5029664;28;20483;-72
2023/01/05 01:14:57;;;;;;;6.77;2.03;;;11.40;99.90;;;;;;5029498;28;20478;-71
2023/01/05 01:17:23;;;;;;;7.07;2.27;;;11.30;99.90;;;;;;5029195;28;20451;-71
2023/01/05 01:19:50;;;;;;;6.23;2.40;;;11.30;99.90;;;;;;5029108;28;21148;-71
2023/01/05 01:22:18;;;;;;;6.07;2.23;;;11.30;99.90;;;;;;5029981;28;20458;-71
2023/01/05 01:24:44;;;;;;;7.47;2.40;;;11.30;99.90;;;;;;5028769;28;20442;-71
2023/01/05 01:27:12;;;;;;;8.70;2.70;;;11.30;99.90;;;;;;5029665;28;21027;-72
2023/01/05 01:29:38;;;;;;;8.63;2.00;;;11.20;99.90;;;;;;5029687;28;20473;-71
2023/01/05 01:32:05;;;;;;;5.37;2.13;;;11.20;99.90;;;;;;5029664;28;20531;-71
2023/01/05 01:34:32;;;;;;;10.90;2.60;;;11.10;99.90;;;;;;5029239;28;20531;-71
2023/01/05 01:36:59;;;;;;;11.93;2.47;;;11.10;99.90;;;;;;5028142;28;20508;-71
2023/01/05 01:39:27;;;;;;;9.80;2.10;;;11.10;99.90;;;;;;5029349;28;20873;-71
2023/01/05 01:41:53;;;;;;;10.93;2.67;;;11.10;99.90;;;;;;5029034;28;20963;-71
2023/01/05 01:44:49;;;;;;;13.80;2.23;;;11.10;99.90;;;;;;5028566;28;20454;-71
2023/01/05 01:47:22;;;;;;;7.50;2.50;;;11.10;99.90;;;;;;5028961;28;20789;-71
2023/01/05 01:49:50;;;;;;;8.47;2.50;;;11.10;99.90;;;;;;5028996;28;20982;-71
2023/01/05 01:52:18;;;;;;;9.50;2.50;;;11.10;99.90;;;;;;5028878;28;20458;-71
2023/01/05 01:54:46;;;;;;;11.87;3.03;;;11.10;99.90;;;;;;5028276;28;20485;-71
2023/01/05 01:57:14;;;;;;;10.47;2.50;;;11.00;99.90;;;;;;5029366;28;20450;-71
2023/01/05 01:59:42;;;;;;;9.20;2.83;;;11.00;99.90;;;;;;5028564;28;20474;-72
2023/01/05 02:02:09;;;;;;;9.57;2.97;;;10.90;99.90;;;;;;5028886;28;20492;-71
2023/01/05 02:04:37;;;;;;;11.50;2.80;;;10.90;99.90;;;;;;5028834;28;20504;-71
2023/01/05 02:07:04;;;;;;;8.97;2.60;;;10.80;99.90;;;;;;5028735;28;20576;-71
2023/01/05 02:09:31;;;;;;;9.67;2.57;;;10.80;99.90;;;;;;5028423;28;20458;-71
2023/01/05 02:12:06;;;;;;;10.33;2.37;;;10.80;99.90;;;;;;5028574;28;20450;-71
2023/01/05 02:14:41;;;;;;;14.83;3.30;;;10.80;99.90;;;;;;5028703;28;20921;-71
2023/01/05 02:17:19;;;;;;;7.67;2.60;;;10.80;99.90;;;;;;5028709;28;20484;-71
2023/01/05 02:20:27;;;;;;;11.03;3.53;;;10.80;99.90;;;;;;5027712;28;20492;-72
2023/01/05 02:23:21;;;;;;;12.87;3.10;;;10.70;99.90;;;;;;5028526;28;20505;-71
2023/01/05 02:26:23;;;;;;;20.20;2.63;;;10.70;99.90;;;;;;5023355;28;20528;-71
2023/01/05 02:29:22;;;;;;;11.97;2.77;;;10.60;99.90;;;;;;5028339;28;20446;-71
2023/01/05 02:31:55;;;;;;;14.17;3.63;;;10.60;99.90;;;;;;5028160;28;20524;-71
2023/01/05 02:34:28;;;;;;;11.27;3.10;;;10.50;99.90;;;;;;5028170;28;20600;-71
2023/01/05 02:37:00;;;;;;;18.00;3.63;;;10.50;99.90;;;;;;5027153;28;20520;-71
2023/01/05 02:39:33;;;;;;;12.73;3.53;;;10.50;99.90;;;;;;5027781;28;20459;-71
2023/01/05 02:42:02;;;;;;;12.27;2.90;;;10.40;99.90;;;;;;5027922;28;20450;-71
2023/01/05 02:44:32;;;;;;;6.90;3.07;;;10.40;99.90;;;;;;5027684;28;20504;-71
2023/01/05 02:47:02;;;;;;;9.33;2.77;;;10.40;99.90;;;;;;5027903;28;20760;-72
2023/01/05 02:49:32;;;;;;;8.83;2.57;;;10.30;99.90;;;;;;5028363;28;20511;-72
2023/01/05 02:52:01;;;;;;;15.27;4.13;;;10.30;99.90;;;;;;5027797;28;20504;-71
2023/01/05 02:54:34;;;;;;;14.77;3.13;;;10.20;99.90;;;;;;5027675;28;21008;-72
2023/01/05 02:57:06;;;;;;;20.70;3.80;;;10.20;99.90;;;;;;5027312;28;20454;-71
2023/01/05 02:59:37;;;;;;;14.70;2.90;;;10.10;99.90;;;;;;5027478;28;20993;-71
2023/01/05 03:02:09;;;;;;;19.13;4.23;;;10.10;99.90;;;;;;5027255;28;20466;-71
2023/01/05 03:04:42;;;;;;;18.00;3.30;;;10.10;99.90;;;;;;5027942;28;20454;-71
2023/01/05 03:07:13;;;;;;;16.63;3.03;;;10.10;99.90;;;;;;5028331;28;20458;-71
2023/01/05 03:09:42;;;;;;;11.57;3.50;;;10.10;99.90;;;;;;5027327;28;20465;-71
2023/01/05 03:15:03;;;;;;;20.57;2.60;;;10.10;99.90;;;;;;5027381;28;20582;-71
2023/01/05 03:17:34;;;;;;;10.43;2.60;;;10.10;99.90;;;;;;5027637;28;20499;-71
2023/01/05 03:20:02;;;;;;;9.60;2.53;;;10.10;99.90;;;;;;5026999;28;20956;-71
2023/01/05 03:36:41;;;;;;;15.37;2.63;;;10.20;99.90;;;;;;5026856;28;20961;-71
2023/01/05 03:39:10;;;;;;;10.60;2.60;;;10.30;99.90;;;;;;5027046;28;20508;-71
2023/01/05 03:41:38;;;;;;;12.40;3.30;;;10.30;99.90;;;;;;5027231;28;20478;-71
2023/01/05 03:44:05;;;;;;;22.47;4.63;;;10.30;99.90;;;;;;5027405;28;20453;-72
2023/01/05 03:46:32;;;;;;;14.57;3.13;;;10.30;99.90;;;;;;5026987;28;20438;-71
2023/01/05 03:48:59;;;;;;;12.80;3.10;;;10.40;99.90;;;;;;5027222;28;20954;-72
2023/01/05 03:51:26;;;;;;;12.60;3.13;;;10.40;99.90;;;;;;5026848;28;20477;-71
2023/01/05 03:53:53;;;;;;;24.40;3.40;;;10.40;99.90;;;;;;5027448;28;20442;-72
2023/01/05 03:56:19;;;;;;;13.27;3.03;;;10.40;99.90;;;;;;5025881;28;20493;-71
2023/01/05 03:58:46;;;;;;;13.73;3.03;;;10.30;99.90;;;;;;5027175;28;20462;-71
2023/01/05 04:01:13;;;;;;;13.80;3.53;;;10.30;99.90;;;;;;5027031;28;20540;-71
2023/01/05 04:03:40;;;;;;;15.00;3.07;;;10.30;99.90;;;;;;5027384;28;20480;-71
2023/01/05 04:06:08;;;;;;;11.67;3.10;;;10.30;99.90;;;;;;5026616;28;20559;-71
2023/01/05 04:08:34;;;;;;;13.70;3.13;;;10.40;99.90;;;;;;5027375;28;20452;-71
2023/01/05 04:11:12;;;;;;;10.70;2.50;;;10.40;99.90;;;;;;5026760;28;20466;-71
2023/01/05 04:13:38;;;;;;;12.40;3.20;;;10.40;99.90;;;;;;5026827;28;20461;-71
2023/01/05 04:16:06;;;;;;;12.70;2.83;;;10.40;99.90;;;;;;5027006;28;20498;-71
2023/01/05 04:18:32;;;;;;;15.50;3.30;;;10.30;99.90;;;;;;5027208;28;20466;-71
2023/01/05 04:20:59;;;;;;;9.43;2.73;;;10.30;99.90;;;;;;5027065;28;20473;-71
2023/01/05 04:23:27;;;;;;;11.00;3.13;;;10.30;99.90;;;;;;5027061;28;20453;-71
2023/01/05 04:25:53;;;;;;;12.30;3.40;;;10.40;99.90;;;;;;5026523;28;20516;-71
2023/01/05 04:28:20;;;;;;;18.30;3.37;;;10.40;99.90;;;;;;5026470;28;20534;-71
2023/01/05 04:30:49;;;;;;;16.23;3.50;;;10.40;99.90;;;;;;5026671;28;21068;-71
2023/01/05 04:33:16;;;;;;;21.37;3.90;;;10.40;99.90;;;;;;5026467;28;20446;-71
2023/01/05 04:35:43;;;;;;;12.90;3.43;;;10.50;99.90;;;;;;5026239;28;20477;-71
2023/01/05 04:38:09;;;;;;;14.63;2.80;;;10.50;99.90;;;;;;5026133;28;20458;-71
2023/01/05 04:40:38;;;;;;;16.60;3.20;;;10.40;99.90;;;;;;5026816;28;20473;-71
2023/01/05 04:43:05;;;;;;;12.60;2.83;;;10.40;99.90;;;;;;5026270;28;20504;-71
2023/01/05 04:45:31;;;;;;;12.50;3.23;;;10.40;99.90;;;;;;5026613;28;20446;-71
2023/01/05 04:47:58;;;;;;;21.33;3.70;;;10.50;99.90;;;;;;5026692;28;20454;-71
2023/01/05 04:50:25;;;;;;;13.43;3.60;;;10.40;99.90;;;;;;5026700;28;21005;-70
2023/01/05 04:52:51;;;;;;;11.70;2.77;;;10.40;99.90;;;;;;5028993;28;20523;-72
2023/01/05 04:55:18;;;;;;;13.47;3.40;;;10.40;99.90;;;;;;5029985;28;20481;-71
2023/01/05 04:57:46;;;;;;;13.93;3.93;;;10.40;99.90;;;;;;5030645;28;20838;-69
2023/01/05 05:00:13;;;;;;;14.27;3.20;;;10.40;99.90;;;;;;5029774;28;20540;-69
2023/01/05 05:02:40;;;;;;;14.40;3.00;;;10.40;99.90;;;;;;5029931;28;20454;-69
2023/01/05 05:05:07;;;;;;;18.77;3.80;;;10.40;99.90;;;;;;5028932;28;20504;-70
2023/01/05 05:07:34;;;;;;;12.97;3.50;;;10.40;99.90;;;;;;5029560;28;20866;-70
2023/01/05 05:10:00;;;;;;;24.63;3.63;;;10.40;99.90;;;;;;5029476;28;20470;-70
2023/01/05 05:12:27;;;;;;;17.67;3.40;;;10.40;99.90;;;;;;5028579;28;20454;-70
2023/01/05 05:14:55;;;;;;;19.23;3.63;;;10.40;99.90;;;;;;5027378;28;20457;-71
2023/01/05 05:17:21;;;;;;;19.20;4.07;;;10.40;99.90;;;;;;5028066;28;20457;-71
2023/01/05 05:19:48;;;;;;;21.90;3.40;;;10.40;99.90;;;;;;5027676;28;20486;-71
2023/01/05 05:22:15;;;;;;;16.27;3.23;;;10.40;99.90;;;;;;5027879;28;20524;-71
2023/01/05 05:24:41;;;;;;;16.60;3.70;;;10.40;99.90;;;;;;5028048;28;20462;-71
2023/01/05 05:27:08;;;;;;;18.30;3.40;;;10.40;99.90;;;;;;5029295;28;20950;-71
2023/01/05 05:29:35;;;;;;;10.07;2.70;;;10.40;99.90;;;;;;5029408;28;21357;-71
2023/01/05 05:32:03;;;;;;;10.93;3.20;;;10.40;99.90;;;;;;5029245;28;20511;-71
2023/01/05 05:34:30;;;;;;;23.50;3.87;;;10.30;99.90;;;;;;5029244;28;20458;-71
2023/01/05 05:36:56;;;;;;;10.03;3.17;;;10.30;99.90;;;;;;5028238;28;20490;-71
2023/01/05 05:39:23;;;;;;;21.60;3.07;;;10.30;99.90;;;;;;5029323;28;20504;-71
2023/01/05 05:41:49;;;;;;;11.40;3.60;;;10.30;99.90;;;;;;5029349;28;20872;-71
2023/01/05 05:44:16;;;;;;;14.47;3.67;;;10.30;99.90;;;;;;5029251;28;20450;-71
2023/01/05 05:46:43;;;;;;;15.80;3.17;;;10.30;99.90;;;;;;5029376;28;20453;-71
2023/01/05 05:49:10;;;;;;;25.70;3.97;;;10.30;99.90;;;;;;5029321;28;20511;-71
2023/01/05 05:51:37;;;;;;;15.90;3.43;;;10.30;99.90;;;;;;5028949;28;20485;-71
2023/01/05 05:54:04;;;;;;;14.60;3.37;;;10.30;99.90;;;;;;5028517;28;20446;-71
2023/01/05 05:56:31;;;;;;;16.70;3.80;;;10.30;99.90;;;;;;5028535;28;20473;-71
2023/01/05 05:58:57;;;;;;;16.67;3.90;;;10.30;99.90;;;;;;5028813;28;20499;-71
2023/01/05 06:01:24;;;;;;;15.00;3.40;;;10.30;99.90;;;;;;5029265;28;20811;-71
2023/01/05 06:03:51;;;;;;;11.93;3.13;;;10.30;99.90;;;;;;5029054;28;20517;-70
2023/01/05 06:06:19;;;;;;;15.60;3.60;;;10.30;99.90;;;;;;5028542;28;20446;-71
2023/01/05 06:08:45;;;;;;;12.57;3.20;;;10.20;99.90;;;;;;5029160;28;20496;-71
2023/01/05 06:11:12;;;;;;;12.13;3.60;;;10.20;99.90;;;;;;5028282;28;20895;-71
2023/01/05 06:13:38;;;;;;;25.43;3.67;;;10.20;99.90;;;;;;5028283;28;20499;-72
2023/01/05 06:16:05;;;;;;;18.53;3.60;;;10.20;99.90;;;;;;5028230;28;20493;-71
2023/01/05 06:18:32;;;;;;;14.53;3.30;;;10.20;99.90;;;;;;5028782;28;20518;-71
2023/01/05 06:20:59;;;;;;;16.20;3.37;;;10.10;99.90;;;;;;5028296;28;21402;-71
2023/01/05 06:23:27;;;;;;;21.47;5.00;;;10.00;99.90;;;;;;5028445;28;20446;-70
2023/01/05 06:25:53;;;;;;;9.43;3.20;;;10.00;99.90;;;;;;5028043;28;20825;-71
2023/01/05 06:28:20;;;;;;;16.30;4.00;;;10.00;99.90;;;;;;5028371;28;20462;-71
2023/01/05 06:30:47;;;;;;;15.10;3.43;;;9.90;99.90;;;;;;5028570;28;20539;-71
2023/01/05 06:33:13;;;;;;;11.77;3.57;;;9.90;99.90;;;;;;5028270;28;20462;-70
2023/01/05 06:35:40;;;;;;;14.30;3.50;;;9.90;99.90;;;;;;5028035;28;20489;-71
2023/01/05 06:38:07;;;;;;;16.43;4.10;;;9.90;99.90;;;;;;5027022;28;20454;-71
2023/01/05 06:40:35;;;;;;;18.10;3.30;;;9.80;99.90;;;;;;5027953;28;20556;-71
2023/01/05 06:43:01;;;;;;;12.77;3.57;;;9.80;99.90;;;;;;5028202;28;20512;-71
2023/01/05 06:45:28;;;;;;;16.50;3.40;;;9.80;99.90;;;;;;5027613;28;20496;-71
2023/01/05 06:47:56;;;;;;;20.40;4.00;;;9.80;99.90;;;;;;5027950;28;20450;-71
2023/01/05 06:50:22;;;;;;;14.87;2.90;;;9.80;99.90;;;;;;5028365;28;20548;-70
2023/01/05 06:52:49;;;;;;;10.77;2.83;;;9.80;99.90;;;;;;5027423;28;20863;-71
2023/01/05 06:55:16;;;;;;;14.83;3.63;;;9.80;99.90;;;;;;5027315;28;20843;-71
2023/01/05 06:57:44;;;;;;;15.90;3.77;;;9.80;99.90;;;;;;5027302;28;20953;-71
2023/01/05 07:00:12;;;;;;;18.67;3.47;;;9.80;99.90;;;;;;5027368;28;20516;-71
2023/01/05 07:02:38;;;;;;;13.83;3.40;;;9.80;99.90;;;;;;5028035;28;20466;-71
2023/01/05 07:05:06;;;;;;;15.43;3.70;;;9.80;99.90;;;;;;5027026;28;20499;-71
2023/01/05 07:07:33;;;;;;;12.80;3.60;;;9.80;99.90;;;;;;5026208;28;20461;-71
2023/01/05 07:10:00;;;;;;;17.43;3.10;;;9.90;99.90;;;;;;5023661;28;20469;-70
2023/01/05 07:12:26;;;;;;;11.07;3.33;;;9.90;99.90;;;;;;5025676;28;20450;-71
2023/01/05 07:14:54;;;;;;;20.73;4.17;;;9.90;99.90;;;;;;5024551;28;20977;-71
2023/01/05 07:17:21;;;;;;;20.07;4.30;;;9.90;99.90;;;;;;5026305;28;20478;-70
2023/01/05 07:19:48;;;;;;;12.70;3.33;;;9.90;99.90;;;;;;5027357;28;20489;-71
2023/01/05 07:22:15;;;;;;;20.83;4.50;;;9.90;99.90;;;;;;5028205;28;20504;-71
2023/01/05 07:24:41;;;;;;;21.13;4.37;;;9.90;99.90;;;;;;5028083;28;20460;-71
2023/01/05 07:27:08;;;;;;;15.03;3.70;;;9.90;99.90;;;;;;5027835;28;20898;-72
2023/01/05 07:29:34;;;;;;;12.17;3.00;;;9.80;99.90;;;;;;5027536;28;20527;-71
2023/01/05 07:32:02;;;;;;;11.37;3.37;;;9.80;99.90;;;;;;5023437;28;20819;-71
2023/01/05 07:34:29;;;;;;;19.40;3.63;;;9.70;99.90;;;;;;5024715;28;20450;-71
2023/01/05 07:36:56;;;;;;;19.37;3.57;;;9.60;99.90;;;;;;5024266;28;20552;-71
2023/01/05 07:39:22;;;;;;;13.43;3.27;;;9.60;99.90;;;;;;5024954;28;20476;-71
2023/01/05 07:41:49;;;;;;;15.30;3.57;;;9.60;99.90;;;;;;5024952;28;21027;-71
2023/01/05 07:44:17;;;;;;;17.17;4.23;;;9.50;99.90;;;;;;5023886;28;20508;-72
2023/01/05 07:46:43;;;;;;;25.43;4.33;;;9.50;99.90;;;;;;5024112;28;20454;-72
2023/01/05 07:49:11;;;;;;;18.50;3.67;;;9.40;99.90;;;;;;5023799;28;20458;-72
2023/01/05 07:51:38;;;;;;;19.90;3.67;;;9.40;99.90;;;;;;5024271;28;20461;-72
2023/01/05 07:54:04;;;;;;;16.73;4.13;;;9.40;99.90;;;;;;5024395;28;20876;-71
2023/01/05 07:56:31;;;;;;;13.80;3.50;;;9.30;99.90;;;;;;5024569;28;20485;-71
2023/01/05 07:58:59;;;;;;;13.43;3.57;;;9.30;99.90;;;;;;5023766;28;20535;-71
2023/01/05 08:01:25;;;;;;;20.10;4.60;;;9.30;99.90;;;;;;5024220;28;20473;-71
2023/01/05 08:03:52;;;;;;;17.47;4.17;;;9.30;99.90;;;;;;5023829;28;20450;-70
2023/01/05 08:06:21;;;;;;;16.93;3.50;;;9.30;99.90;;;;;;5023994;28;20450;-71
2023/01/05 08:08:48;;;;;;;18.63;3.83;;;9.40;99.90;;;;;;5023732;28;20458;-70
2023/01/05 08:11:16;;;;;;;21.03;4.40;;;9.40;99.90;;;;;;5024024;28;20485;-70
2023/01/05 08:13:59;;;;;;;11.80;3.67;;;9.50;99.90;;;;;;5024160;28;20953;-70
2023/01/05 08:16:26;;;;;;;15.47;3.80;;;9.60;99.90;;;;;;5023416;28;20512;-70
2023/01/05 08:18:54;;;;;;;18.63;3.83;;;9.60;99.90;;;;;;5024225;28;20892;-70
2023/01/05 08:21:23;;;;;;;14.80;3.50;;;9.70;99.90;;;;;;5023651;28;20524;-70
2023/01/05 08:23:51;;;;;;;13.37;3.53;;;9.60;99.90;;;;;;5023128;28;20884;-70
2023/01/05 08:26:20;;;;;;;20.83;3.97;;;9.70;99.90;;;;;;5026153;28;20454;-70
2023/01/05 08:28:47;;;;;;;23.10;4.50;;;9.70;99.90;;;;;;5027794;28;20535;-70
2023/01/05 08:31:16;;;;;;;18.63;4.17;;;9.70;99.90;;;;;;5027012;28;20469;-71
2023/01/05 08:33:42;;;;;;;14.17;3.93;;;9.70;99.90;;;;;;5026752;28;20512;-71
2023/01/05 08:36:11;;;;;;;15.90;4.40;;;9.60;99.90;;;;;;5025884;28;20551;-71
2023/01/05 08:38:47;;;;;;;11.10;3.73;;;9.60;99.90;;;;;;5027610;28;20540;-71
2023/01/05 08:41:18;;;;;;;28.97;6.67;;;9.60;99.90;;;;;;5026811;28;20478;-71
2023/01/05 08:43:48;;;;;;;14.93;3.60;;;9.60;99.90;;;;;;5025619;28;20480;-71
2023/01/05 08:46:15;;;;;;;12.27;3.90;;;9.50;99.90;;;;;;5025622;28;20452;-71
2023/01/05 08:48:41;;;;;;;15.00;4.13;;;9.60;99.90;;;;;;5025649;28;20453;-71
2023/01/05 08:51:08;;;;;;;20.77;4.43;;;9.70;99.90;;;;;;5025796;28;20556;-71
2023/01/05 08:53:35;;;;;;;20.67;3.67;;;9.90;99.90;;;;;;5027212;28;20454;-71
2023/01/05 08:56:03;;;;;;;17.70;3.07;;;10.00;99.90;;;;;;5027543;28;20437;-71
2023/01/05 08:58:30;;;;;;;17.33;4.10;;;10.20;99.90;;;;;;5027416;28;20477;-71
2023/01/05 09:00:56;;;;;;;21.27;4.50;;;10.40;99.90;;;;;;5026936;28;20485;-71
2023/01/05 09:03:23;;;;;;;17.13;3.43;;;10.40;99.90;;;;;;5027198;28;20519;-71
2023/01/05 09:05:52;;;;;;;16.03;4.00;;;10.50;99.90;;;;;;5026918;28;20483;-71
2023/01/05 09:08:19;;;;;;;13.70;3.93;;;10.50;99.90;;;;;;5026475;28;20515;-71
2023/01/05 09:10:46;;;;;;;11.73;3.13;;;10.50;99.90;;;;;;5027860;28;20477;-71
2023/01/05 09:13:13;;;;;;;18.20;4.00;;;10.40;99.90;;;;;;5026175;28;20473;-72
2023/01/05 09:15:40;;;;;;;21.20;3.83;;;10.40;99.90;;;;;;5025943;28;20519;-71
2023/01/05 09:18:07;;;;;;;16.00;4.20;;;10.40;99.90;;;;;;5025707;28;20493;-71
2023/01/05 09:20:33;;;;;;;17.83;3.70;;;10.40;99.90;;;;;;5028616;28;20520;-71
2023/01/05 09:23:00;;;;;;;12.33;2.80;;;10.70;99.90;;;;;;5027908;28;20447;-71
2023/01/05 09:25:27;;;;;;;20.43;3.53;;;10.90;99.90;;;;;;5026124;28;20884;-71
2023/01/05 09:27:54;;;;;;;10.57;3.50;;;10.90;99.90;;;;;;5026553;28;20512;-71
2023/01/05 09:30:22;;;;;;;16.47;3.60;;;10.90;99.90;;;;;;5025006;28;20540;-71
2023/01/05 09:32:48;;;;;;;23.27;4.13;;;11.10;99.90;;;;;;5026099;28;20512;-71
2023/01/05 09:35:15;;;;;;;15.90;4.30;;;11.10;99.90;;;;;;5025980;28;20885;-71
2023/01/05 09:37:42;;;;;;;19.70;3.00;;;11.30;99.90;;;;;;5025465;28;21022;-70
2023/01/05 09:40:12;;;;;;;16.80;3.80;;;11.60;99.90;;;;;;5026862;28;20491;-70
2023/01/05 09:42:43;;;;;;;19.10;4.50;;;11.60;99.90;;;;;;5026299;28;20458;-70
2023/01/05 09:45:13;;;;;;;14.03;3.17;;;11.50;99.90;;;;;;5025877;28;20889;-70
2023/01/05 09:47:45;;;;;;;15.30;3.67;;;11.30;99.90;;;;;;5025444;28;20461;-71
2023/01/05 09:50:19;;;;;;;15.27;3.53;;;11.10;99.90;;;;;;5025074;28;20504;-71
2023/01/05 09:52:46;;;;;;;12.20;3.30;;;10.90;99.90;;;;;;5025307;28;20455;-71
2023/01/05 09:55:16;;;;;;;10.00;3.20;;;10.80;99.90;;;;;;5024407;28;20453;-70
2023/01/05 09:57:47;;;;;;;17.63;4.17;;;10.70;99.90;;;;;;5025471;28;20490;-71
2023/01/05 10:00:17;;;;;;;15.13;3.90;;;10.70;99.90;;;;;;5024331;28;20537;-70
2023/01/05 10:02:50;;;;;;;14.67;3.03;;;10.80;99.90;;;;;;5025464;28;20454;-70
2023/01/05 10:05:17;;;;;;;20.27;3.77;;;11.00;99.90;;;;;;5024384;28;20466;-72
2023/01/05 10:07:47;;;;;;;9.07;3.13;;;11.40;99.90;;;;;;5024869;28;20452;-72
2023/01/05 10:10:23;;;;;;;8.97;3.53;;;11.50;99.90;;;;;;5025402;28;20478;-72
2023/01/05 10:13:05;;;;;;;15.00;3.33;;;11.70;99.90;;;;;;5026293;28;20508;-71
2023/01/05 10:15:37;;;;;;;9.07;3.23;;;11.70;99.90;;;;;;5025420;28;20527;-71
2023/01/05 10:18:12;;;;;;;13.17;3.83;;;11.40;99.90;;;;;;5024078;28;20492;-71
2023/01/05 10:21:02;;;;;;;14.53;3.90;;;11.10;99.90;;;;;;5024331;28;20473;-71
2023/01/05 10:23:52;;;;;;;12.73;3.30;;;10.90;99.90;;;;;;5024733;28;20455;-71
2023/01/05 10:26:24;;;;;;;17.40;3.70;;;10.70;99.90;;;;;;5024125;28;20454;-71
2023/01/05 10:28:57;;;;;;;21.10;3.77;;;10.60;99.90;;;;;;5024051;28;20462;-71
2023/01/05 10:31:30;;;;;;;12.50;3.07;;;10.60;99.90;;;;;;5024121;28;20481;-70
2023/01/05 10:34:08;;;;;;;14.20;3.53;;;10.50;99.90;;;;;;5024453;28;20945;-69
2023/01/05 10:36:52;;;;;;;15.83;3.37;;;10.50;99.90;;;;;;5024371;28;20446;-70
2023/01/05 10:39:26;;;;;;;21.13;4.53;;;10.60;99.90;;;;;;5024178;28;20982;-69
2023/01/05 10:42:01;;;;;;;9.60;3.47;;;10.70;99.90;;;;;;5024942;28;20551;-70
2023/01/05 10:44:38;;;;;;;22.03;4.50;;;10.70;99.90;;;;;;5025289;28;20532;-69
2023/01/05 10:47:08;;;;;;;17.33;3.67;;;10.70;99.90;;;;;;5024679;28;20445;-70
2023/01/05 10:49:37;;;;;;;22.40;3.83;;;10.80;99.90;;;;;;5023181;28;20840;-69
2023/01/05 10:52:04;;;;;;;13.60;3.47;;;10.80;99.90;;;;;;5024355;28;20454;-69
2023/01/05 10:54:37;;;;;;;14.93;3.80;;;10.90;99.90;;;;;;5023684;28;21239;-68
2023/01/05 10:57:38;;;;;;;16.90;3.60;;;10.90;99.90;;;;;;5023548;28;20544;-69
2023/01/05 11:00:10;;;;;;;18.03;3.50;;;11.00;99.90;;;;;;5019343;28;20559;-69
2023/01/05 11:02:38;;;;;;;17.33;3.80;;;10.90;99.90;;;;;;5024203;28;20462;-69
2023/01/05 11:05:18;;;;;;;22.23;4.27;;;10.90;99.90;;;;;;5023828;28;20689;-69
2023/01/05 11:07:50;;;;;;;21.13;3.90;;;10.90;99.90;;;;;;5024024;28;21229;-70
2023/01/05 11:10:27;;;;;;;19.30;4.83;;;10.90;99.90;;;;;;5022936;28;21326;-70
2023/01/05 11:13:00;;;;;;;18.93;4.20;;;11.00;99.90;;;;;;5024091;28;20516;-69
2023/01/05 11:15:26;;;;;;;19.43;3.53;;;11.00;99.90;;;;;;5023842;28;20481;-69
2023/01/05 11:17:53;;;;;;;15.53;3.20;;;11.00;99.90;;;;;;5024423;28;21051;-71
2023/01/05 11:20:21;;;;;;;10.80;3.00;;;10.90;99.90;;;;;;5023610;28;20573;-71
2023/01/05 11:22:50;;;;;;;22.13;4.13;;;10.90;99.90;;;;;;5023850;28;20450;-71
2023/01/05 11:25:30;;;;;;;12.47;3.17;;;11.00;99.90;;;;;;5023241;28;20879;-71
2023/01/05 11:28:14;;;;;;;17.37;4.53;;;10.90;99.90;;;;;;5023619;28;20453;-72
2023/01/05 11:30:55;;;;;;;24.13;5.50;;;10.90;99.90;;;;;;5023602;28;20474;-72
2023/01/05 11:33:24;;;;;;;19.67;4.23;;;10.90;99.90;;;;;;5023686;28;20446;-72
2023/01/05 11:35:53;;;;;;;21.83;3.50;;;11.00;99.90;;;;;;5023953;28;20512;-75
2023/01/05 11:38:23;;;;;;;27.93;4.83;;;11.10;99.90;;;;;;5023285;28;20534;-73
2023/01/05 11:40:50;;;;;;;14.87;3.50;;;11.40;99.90;;;;;;5023535;28;20500;-74
2023/01/05 11:43:19;;;;;;;16.67;4.50;;;11.40;99.90;;;;;;5022657;28;20509;-74
2023/01/05 11:45:50;;;;;;;19.60;4.27;;;11.60;99.90;;;;;;5023142;28;20520;-74
2023/01/05 11:48:20;;;;;;;19.23;4.13;;;11.80;99.90;;;;;;5023401;28;20454;-73
2023/01/05 11:50:49;;;;;;;28.57;5.00;;;11.80;99.90;;;;;;5023080;28;21040;-73
2023/01/05 11:53:35;;;;;;;16.33;3.87;;;11.80;99.90;;;;;;5023366;28;20456;-73
2023/01/05 11:56:03;;;;;;;23.10;4.37;;;11.80;99.90;;;;;;5023152;28;20879;-71
2023/01/05 11:58:34;;;;;;;16.53;4.60;;;11.60;99.90;;;;;;5023741;28;20495;-70
2023/01/05 12:01:37;;;;;;;17.40;4.07;;;11.40;99.90;;;;;;5024815;28;20474;-70
2023/01/05 12:04:12;;;;;;;14.93;4.17;;;11.30;99.90;;;;;;5027544;28;20634;-71
2023/01/05 12:07:16;;;;;;;17.20;3.40;;;11.20;99.90;;;;;;5027067;28;20451;-69
2023/01/05 12:09:53;;;;;;;32.87;4.60;;;11.20;99.90;;;;;;5027670;28;20469;-69
2023/01/05 12:12:28;;;;;;;24.30;4.63;;;11.30;99.90;;;;;;5026760;28;20449;-69
2023/01/05 12:15:22;;;;;;;15.07;4.80;;;11.30;99.90;;;;;;5026508;28;20461;-68
2023/01/05 12:17:57;;;;;;;18.40;4.10;;;11.40;99.90;;;;;;5027166;28;20536;-68
2023/01/05 12:20:45;;;;;;;20.27;3.87;;;11.50;99.90;;;;;;5026704;28;20910;-73
2023/01/05 12:23:34;;;;;;;16.33;4.10;;;11.60;99.90;;;;;;5027326;28;20800;-69
2023/01/05 12:26:14;;;;;;;16.33;3.80;;;11.60;99.90;;;;;;5026942;28;20450;-69
2023/01/05 12:28:58;;;;;;;16.40;4.20;;;11.60;99.90;;;;;;5026939;28;20449;-71
2023/01/05 12:31:47;;;;;;;26.30;4.30;;;11.60;99.90;;;;;;5025459;28;20482;-71
2023/01/05 12:34:40;;;;;;;17.03;4.17;;;11.60;99.90;;;;;;5026662;28;20942;-71
2023/01/05 12:37:19;;;;;;;16.50;4.10;;;11.60;99.90;;;;;;5026797;28;20458;-71
2023/01/05 12:40:04;;;;;;;25.90;4.90;;;11.60;99.90;;;;;;5026717;28;20467;-72
2023/01/05 12:42:54;;;;;;;19.63;4.37;;;11.60;99.90;;;;;;5026889;28;20458;-72
2023/01/05 12:45:47;;;;;;;13.90;3.60;;;11.60;99.90;;;;;;5026482;28;20466;-72
2023/01/05 12:48:18;;;;;;;16.33;4.40;;;11.50;99.90;;;;;;5026225;28;20446;-72
2023/01/05 12:50:49;;;;;;;14.53;3.80;;;11.50;99.90;;;;;;5026706;28;20527;-72
2023/01/05 12:53:27;;;;;;;21.83;4.10;;;11.50;99.90;;;;;;5026219;28;20454;-72
2023/01/05 12:55:56;;;;;;;25.30;4.50;;;11.50;99.90;;;;;;5025943;28;20953;-72
2023/01/05 12:58:29;;;;;;;15.17;4.43;;;11.50;99.90;;;;;;5025165;28;21001;-72
2023/01/05 13:00:57;;;;;;;20.27;3.90;;;11.50;99.90;;;;;;5026209;28;20478;-72
2023/01/05 13:03:27;;;;;;;13.60;3.80;;;11.50;99.90;;;;;;5026044;28;20463;-72
2023/01/05 13:06:00;;;;;;;18.17;4.50;;;11.50;99.90;;;;;;5025802;28;20448;-72
2023/01/05 13:08:37;;;;;;;18.13;4.33;;;11.50;99.90;;;;;;5025960;28;20452;-72
2023/01/05 13:11:11;;;;;;;16.77;3.80;;;11.80;99.90;;;;;;5026017;28;20523;-72
2023/01/05 13:13:43;;;;;;;15.17;4.27;;;12.20;99.90;;;;;;5025682;28;20481;-72
2023/01/05 13:16:17;;;;;;;12.73;3.93;;;12.50;99.90;;;;;;5026343;28;20441;-72
2023/01/05 13:18:48;;;;;;;33.50;4.53;;;12.90;99.90;;;;;;5025794;28;20559;-72
2023/01/05 13:21:16;;;;;;;22.00;5.13;;;13.30;99.90;;;;;;5025679;28;20506;-72
2023/01/05 13:23:47;;;;;;;14.20;3.40;;;13.60;99.90;;;;;;5026184;28;20464;-72